Time;durP1;ratioP1;P1;durP2;ratioP2;P2;SDS_P1;SDS_P2;PMS_P1;PMS_P2;Temp;Humidity;BMP_temperature;BMP_pressure;BME280_temperature;BME280_humidity;BME280_pressure;Samples;Min_cycle;Max_cycle;Signal;HPM_P1;HPM_P2
2021/07/18 00:01:17;;;;;;;1.77;1.48;;;16.80;99.90;;;;;;4903448;29;20029;-79
2021/07/18 00:03:43;;;;;;;7.35;1.63;;;16.80;99.90;;;;;;4897385;29;20025;-79
2021/07/18 00:06:09;;;;;;;2.95;1.50;;;16.80;99.90;;;;;;4896346;29;20040;-78
2021/07/18 00:08:34;;;;;;;2.75;1.65;;;16.80;99.90;;;;;;4898794;29;20039;-78
2021/07/18 00:11:00;;;;;;;5.82;1.80;;;16.80;99.90;;;;;;4898537;29;20044;-78
2021/07/18 00:13:26;;;;;;;4.70;1.67;;;16.80;99.90;;;;;;4903466;29;20045;-78
2021/07/18 00:15:52;;;;;;;6.38;1.60;;;16.70;99.90;;;;;;4888302;29;20048;-79
2021/07/18 00:18:17;;;;;;;4.32;1.95;;;16.70;99.90;;;;;;4897883;29;20123;-78
2021/07/18 00:20:43;;;;;;;4.82;1.70;;;16.70;99.90;;;;;;4892858;29;20077;-78
2021/07/18 00:23:09;;;;;;;3.50;1.40;;;16.60;99.90;;;;;;4902689;29;20503;-78
2021/07/18 00:25:36;;;;;;;3.50;1.52;;;16.60;99.90;;;;;;4910457;29;20025;-79
2021/07/18 00:28:03;;;;;;;1.95;1.40;;;16.60;99.90;;;;;;4887776;29;20422;-78
2021/07/18 00:30:29;;;;;;;5.00;1.70;;;16.50;99.90;;;;;;4914193;29;20057;-78
2021/07/18 00:32:55;;;;;;;2.58;1.38;;;16.50;99.90;;;;;;4901944;29;20043;-78
2021/07/18 00:35:21;;;;;;;2.83;1.63;;;16.50;99.90;;;;;;4902163;29;20040;-78
2021/07/18 00:37:47;;;;;;;5.65;1.67;;;16.50;99.90;;;;;;4899323;29;20037;-78
2021/07/18 00:40:13;;;;;;;4.45;1.58;;;16.50;99.90;;;;;;4893783;29;20059;-78
2021/07/18 00:42:40;;;;;;;3.30;1.60;;;16.40;99.90;;;;;;4898970;29;20028;-78
2021/07/18 00:45:07;;;;;;;2.70;1.65;;;16.50;99.90;;;;;;4881844;29;20547;-78
2021/07/18 00:47:35;;;;;;;6.13;1.77;;;16.40;99.90;;;;;;4900396;29;20037;-78
2021/07/18 00:50:07;;;;;;;4.40;1.50;;;16.40;99.90;;;;;;4897460;29;20048;-78
2021/07/18 00:52:33;;;;;;;3.08;1.50;;;16.40;99.90;;;;;;4914000;29;20028;-78
2021/07/18 00:54:59;;;;;;;2.03;1.35;;;16.30;99.90;;;;;;4899851;29;20507;-78
2021/07/18 00:57:24;;;;;;;4.55;1.60;;;16.40;99.90;;;;;;4905328;29;20384;-78
2021/07/18 00:59:51;;;;;;;2.58;1.63;;;16.30;99.90;;;;;;4899774;29;20042;-78
2021/07/18 01:02:18;;;;;;;2.35;1.40;;;16.20;99.90;;;;;;4898431;29;20042;-79
2021/07/18 01:04:44;;;;;;;1.77;1.20;;;16.20;99.90;;;;;;4899963;29;20040;-78
2021/07/18 01:07:09;;;;;;;4.10;1.20;;;16.20;99.90;;;;;;4898303;29;20032;-78
2021/07/18 01:09:36;;;;;;;3.28;1.70;;;16.10;99.90;;;;;;4899056;29;20036;-79
2021/07/18 01:12:03;;;;;;;3.05;1.35;;;16.10;99.90;;;;;;4895643;29;20036;-77
2021/07/18 01:14:29;;;;;;;2.00;1.10;;;16.10;99.90;;;;;;4899421;29;20115;-78
2021/07/18 01:16:56;;;;;;;4.18;1.50;;;16.10;99.90;;;;;;4902934;29;20066;-79
2021/07/18 01:19:22;;;;;;;3.50;1.52;;;16.10;99.90;;;;;;4905403;29;20054;-79
2021/07/18 01:22:14;;;;;;;1.92;1.67;;;16.10;99.90;;;;;;4916791;29;20108;-79
2021/07/18 01:24:40;;;;;;;2.60;1.30;;;16.10;99.90;;;;;;4894334;29;20057;-79
2021/07/18 01:27:06;;;;;;;2.22;1.40;;;16.10;99.90;;;;;;4891222;29;20017;-79
2021/07/18 01:29:34;;;;;;;6.25;2.22;;;16.10;99.90;;;;;;4900057;29;20539;-78
2021/07/18 01:32:00;;;;;;;3.92;1.60;;;16.10;99.90;;;;;;4901434;29;20041;-79
2021/07/18 01:34:26;;;;;;;1.92;1.30;;;16.10;99.90;;;;;;4909759;29;20092;-79
2021/07/18 01:36:52;;;;;;;2.42;1.48;;;16.00;99.90;;;;;;4905956;29;20056;-79
2021/07/18 01:39:19;;;;;;;2.30;1.42;;;15.90;99.90;;;;;;4903754;29;20092;-78
2021/07/18 01:41:46;;;;;;;3.40;1.40;;;15.90;99.90;;;;;;4886162;29;20033;-79
2021/07/18 01:44:12;;;;;;;1.65;1.10;;;15.90;99.90;;;;;;4902717;29;20074;-78
2021/07/18 01:46:38;;;;;;;3.00;1.50;;;15.80;99.90;;;;;;4901370;29;20031;-79
2021/07/18 01:49:08;;;;;;;3.17;1.48;;;15.80;99.90;;;;;;4884923;29;20043;-79
2021/07/18 01:51:35;;;;;;;1.52;1.23;;;15.70;99.90;;;;;;4892684;29;20036;-79
2021/07/18 01:54:02;;;;;;;2.83;1.70;;;15.70;99.90;;;;;;4899667;29;20032;-78
2021/07/18 01:56:29;;;;;;;3.55;1.50;;;15.70;99.90;;;;;;4900726;29;20048;-79
2021/07/18 01:58:55;;;;;;;4.15;1.48;;;15.70;99.90;;;;;;4897093;29;20376;-79
2021/07/18 02:01:27;;;;;;;2.78;1.50;;;15.60;99.90;;;;;;4896547;29;20064;-79
2021/07/18 02:03:53;;;;;;;2.67;1.40;;;15.60;99.90;;;;;;4900115;29;20120;-78
2021/07/18 02:06:21;;;;;;;2.58;1.65;;;15.60;99.90;;;;;;4895415;29;20038;-78
2021/07/18 02:08:52;;;;;;;3.15;1.60;;;15.60;99.90;;;;;;4890900;29;20041;-79
2021/07/18 02:11:18;;;;;;;3.47;1.30;;;15.50;99.90;;;;;;4889640;29;20037;-78
2021/07/18 02:13:52;;;;;;;2.80;1.23;;;15.50;99.90;;;;;;4898287;29;20042;-78
2021/07/18 02:16:19;;;;;;;1.88;1.42;;;15.50;99.90;;;;;;4886770;29;20523;-78
2021/07/18 02:18:46;;;;;;;5.13;1.95;;;15.60;99.90;;;;;;4902990;29;20465;-78
2021/07/18 02:21:12;;;;;;;5.13;1.70;;;15.60;99.90;;;;;;4888936;29;20048;-78
2021/07/18 02:23:38;;;;;;;3.88;1.52;;;15.50;99.90;;;;;;4894301;29;20088;-79
2021/07/18 02:26:04;;;;;;;10.70;1.88;;;15.60;99.90;;;;;;4888380;29;20021;-78
2021/07/18 02:28:30;;;;;;;3.92;1.60;;;15.60;99.90;;;;;;4904708;29;20040;-77
2021/07/18 02:30:57;;;;;;;3.08;1.77;;;15.60;99.90;;;;;;4878978;29;20032;-78
2021/07/18 02:33:23;;;;;;;2.35;1.50;;;15.70;99.90;;;;;;4889262;29;20097;-77
2021/07/18 02:35:49;;;;;;;2.95;1.63;;;15.70;99.90;;;;;;4889733;29;20116;-78
2021/07/18 02:38:16;;;;;;;5.10;2.83;;;15.70;99.90;;;;;;4888091;29;20064;-78
2021/07/18 02:40:42;;;;;;;4.10;2.15;;;15.80;99.90;;;;;;4892131;29;20120;-79
2021/07/18 02:43:07;;;;;;;3.78;1.65;;;15.80;99.90;;;;;;4890204;29;20112;-78
2021/07/18 02:45:33;;;;;;;3.00;1.58;;;15.70;99.90;;;;;;4892889;29;20071;-79
2021/07/18 02:47:59;;;;;;;2.53;1.60;;;15.70;99.90;;;;;;4902631;29;20537;-79
2021/07/18 02:50:27;;;;;;;5.13;2.05;;;15.80;99.90;;;;;;4915731;29;20048;-79
2021/07/18 02:52:53;;;;;;;4.93;1.75;;;15.80;99.90;;;;;;4901140;29;20044;-79
2021/07/18 02:55:19;;;;;;;3.03;1.60;;;15.70;99.90;;;;;;4897895;29;20055;-79
2021/07/18 02:57:45;;;;;;;4.80;2.30;;;15.70;99.90;;;;;;4897247;29;20037;-80
2021/07/18 03:00:16;;;;;;;2.67;1.70;;;15.70;99.90;;;;;;4893974;29;20037;-80
2021/07/18 10:57:24;;;;;;;4.50;2.80;;;22.80;99.90;;;;;;4940635;29;20139;-84
2021/07/18 10:59:50;;;;;;;4.68;2.78;;;22.80;99.90;;;;;;4934264;29;20541;-84
2021/07/18 11:02:19;;;;;;;5.03;2.90;;;22.90;99.90;;;;;;4894994;29;20032;-83
2021/07/18 11:04:54;;;;;;;3.50;2.80;;;22.90;99.90;;;;;;4883781;29;20036;-84
2021/07/18 11:07:22;;;;;;;4.10;3.03;;;23.00;99.90;;;;;;4910061;29;20090;-83
2021/07/18 11:09:59;;;;;;;3.80;2.70;;;23.00;99.90;;;;;;4921210;29;20394;-84
2021/07/18 11:12:35;;;;;;;5.40;3.50;;;23.10;99.90;;;;;;4894828;29;20038;-85
2021/07/18 11:15:15;;;;;;;5.43;3.17;;;23.20;99.90;;;;;;4891919;29;20043;-86
2021/07/18 11:18:05;;;;;;;4.75;2.95;;;23.30;99.90;;;;;;4892562;29;20028;-85
2021/07/18 11:21:03;;;;;;;4.40;2.83;;;23.40;99.90;;;;;;4900280;29;20040;-86
2021/07/18 11:23:30;;;;;;;4.53;3.28;;;23.40;99.90;;;;;;4926141;29;20039;-82
2021/07/18 11:26:06;;;;;;;7.82;3.63;;;23.50;99.90;;;;;;4903739;29;20035;-83
2021/07/18 11:28:34;;;;;;;6.05;3.80;;;23.60;99.90;;;;;;4901195;29;20095;-85
2021/07/18 11:31:12;;;;;;;4.88;3.35;;;23.50;99.90;;;;;;4915839;29;20032;-83
2021/07/18 11:33:40;;;;;;;4.13;3.25;;;23.60;99.90;;;;;;4909501;29;20032;-83
2021/07/18 11:36:07;;;;;;;6.32;4.00;;;23.70;99.90;;;;;;4911360;29;20086;-83
2021/07/18 11:38:33;;;;;;;6.97;3.83;;;23.80;99.90;;;;;;4910860;29;20044;-84
2021/07/18 11:40:59;;;;;;;4.65;4.00;;;23.90;99.90;;;;;;4894959;29;20111;-84
2021/07/18 11:43:25;;;;;;;5.90;3.97;;;24.10;99.90;;;;;;4918163;29;20054;-82
2021/07/18 11:45:54;;;;;;;8.88;4.15;;;24.20;99.90;;;;;;4921227;29;20414;-82
2021/07/18 11:48:24;;;;;;;6.22;3.67;;;24.20;99.90;;;;;;4937740;29;20039;-85
2021/07/18 11:50:49;;;;;;;8.45;3.88;;;24.30;99.90;;;;;;4908366;29;20088;-85
2021/07/18 11:53:17;;;;;;;8.48;4.05;;;24.50;99.90;;;;;;4898345;29;20037;-83
2021/07/18 11:55:43;;;;;;;7.38;4.10;;;24.60;99.90;;;;;;4898728;29;20068;-84
2021/07/18 11:58:08;;;;;;;6.90;4.15;;;24.70;99.90;;;;;;4898583;29;20071;-84
2021/07/18 12:00:34;;;;;;;5.55;3.78;;;24.80;99.80;;;;;;4870669;29;20075;-82
2021/07/18 12:03:01;;;;;;;6.38;4.47;;;25.00;99.40;;;;;;4905487;29;20044;-84
2021/07/18 12:05:27;;;;;;;7.78;4.80;;;25.10;99.70;;;;;;4918246;29;20430;-85
2021/07/18 12:08:04;;;;;;;6.60;4.30;;;25.30;98.20;;;;;;4886487;29;20534;-84
2021/07/18 12:10:30;;;;;;;5.82;4.32;;;25.50;96.90;;;;;;4904445;29;20122;-84
2021/07/18 12:12:55;;;;;;;6.90;4.13;;;25.60;94.70;;;;;;4868687;29;20064;-84
2021/07/18 12:15:21;;;;;;;6.18;4.47;;;25.80;96.10;;;;;;4897613;29;20053;-83
2021/07/18 12:17:59;;;;;;;5.25;3.95;;;26.10;95.30;;;;;;4898342;29;20040;-83
2021/07/18 12:20:25;;;;;;;7.28;5.07;;;26.30;95.30;;;;;;4893245;29;20084;-84
2021/07/18 12:22:51;;;;;;;7.28;3.95;;;26.60;94.20;;;;;;4896040;29;20058;-83
2021/07/18 12:25:19;;;;;;;6.80;4.00;;;26.90;95.20;;;;;;4879389;29;20052;-84
2021/07/18 12:27:45;;;;;;;6.13;4.20;;;27.20;94.60;;;;;;4903764;29;20032;-84
2021/07/18 12:30:11;;;;;;;7.65;3.92;;;27.30;91.30;;;;;;4902522;29;20425;-83
2021/07/18 12:32:37;;;;;;;5.55;3.80;;;27.40;90.00;;;;;;4898858;29;20056;-84
2021/07/18 12:35:03;;;;;;;6.07;3.60;;;27.40;88.60;;;;;;4935728;29;20043;-84
2021/07/18 12:37:33;;;;;;;5.22;3.40;;;27.30;90.60;;;;;;4903220;29;20095;-84
2021/07/18 12:40:05;;;;;;;5.15;3.20;;;27.30;89.50;;;;;;4903965;29;20711;-83
2021/07/18 12:42:41;;;;;;;6.65;3.20;;;27.40;87.30;;;;;;4901210;29;20127;-84
2021/07/18 12:45:11;;;;;;;5.70;3.55;;;27.30;89.00;;;;;;4916662;29;20035;-84
2021/07/18 12:47:37;;;;;;;4.13;3.10;;;27.30;90.60;;;;;;4904181;29;20467;-84
2021/07/18 12:50:07;;;;;;;7.88;2.90;;;27.40;90.20;;;;;;4898091;29;20028;-84
2021/07/18 12:52:35;;;;;;;4.07;2.60;;;27.40;89.00;;;;;;4900513;29;20387;-84
2021/07/18 12:55:12;;;;;;;4.63;2.85;;;27.50;87.10;;;;;;4881399;29;20028;-84
2021/07/18 12:57:38;;;;;;;3.80;2.75;;;27.60;87.50;;;;;;4898946;29;20126;-85
2021/07/18 13:00:07;;;;;;;4.28;3.08;;;27.70;85.50;;;;;;4915362;29;20119;-85
2021/07/18 13:02:33;;;;;;;3.75;2.88;;;28.00;90.10;;;;;;4896506;29;20028;-84
2021/07/18 13:05:08;;;;;;;5.10;2.90;;;28.30;83.50;;;;;;4916015;29;20092;-86
2021/07/18 13:07:35;;;;;;;3.38;2.58;;;28.30;85.30;;;;;;4915364;29;20024;-83
2021/07/18 13:10:35;;;;;;;8.57;3.22;;;28.50;82.60;;;;;;4899640;29;20032;-84
2021/07/18 13:13:01;;;;;;;3.42;2.60;;;28.60;79.60;;;;;;4917412;29;20067;-83
2021/07/18 13:15:27;;;;;;;3.50;2.55;;;28.50;80.80;;;;;;4870930;29;20498;-85
2021/07/18 13:17:55;;;;;;;4.47;2.67;;;28.50;81.00;;;;;;4870650;29;20131;-83
2021/07/18 13:20:24;;;;;;;4.82;3.35;;;28.60;80.20;;;;;;4916376;29;20405;-84
2021/07/18 13:22:51;;;;;;;3.50;2.60;;;28.60;76.00;;;;;;4917697;29;20052;-84
2021/07/18 13:25:23;;;;;;;2.45;2.03;;;28.50;80.00;;;;;;4882021;29;20494;-83
2021/07/18 13:27:54;;;;;;;3.58;2.40;;;28.50;80.90;;;;;;4898074;29;20037;-82
2021/07/18 13:30:22;;;;;;;3.28;2.30;;;28.60;79.00;;;;;;4882191;29;20127;-83
2021/07/18 13:32:48;;;;;;;3.60;2.50;;;28.60;76.20;;;;;;4885456;29;20402;-83
2021/07/18 13:35:19;;;;;;;4.53;2.72;;;28.40;75.40;;;;;;4920486;29;20040;-83
2021/07/18 13:37:57;;;;;;;3.25;2.45;;;28.30;77.90;;;;;;4897816;29;20039;-84
2021/07/18 13:40:35;;;;;;;2.55;2.20;;;28.30;79.10;;;;;;4883320;29;20511;-83
2021/07/18 13:43:11;;;;;;;3.42;2.13;;;28.40;79.00;;;;;;4866845;29;20769;-83
2021/07/18 13:45:40;;;;;;;3.33;2.28;;;28.50;77.20;;;;;;4907293;29;20050;-83
2021/07/18 13:48:11;;;;;;;3.42;2.15;;;28.60;77.20;;;;;;4904788;29;20036;-83
2021/07/18 13:50:49;;;;;;;3.20;2.35;;;28.60;77.00;;;;;;4887016;29;20036;-84
2021/07/18 13:53:16;;;;;;;4.32;2.35;;;28.50;73.10;;;;;;4901144;29;20524;-83
2021/07/18 13:55:42;;;;;;;4.00;2.47;;;28.20;75.30;;;;;;4881438;29;20048;-84
2021/07/18 13:58:11;;;;;;;2.88;2.58;;;27.90;77.00;;;;;;4887596;29;20032;-83
2021/07/18 14:00:39;;;;;;;3.78;2.50;;;27.50;77.30;;;;;;4886484;29;20040;-83
2021/07/18 14:03:05;;;;;;;4.53;2.45;;;27.30;79.90;;;;;;4892025;29;20126;-84
2021/07/18 14:05:31;;;;;;;2.42;2.17;;;27.00;77.50;;;;;;4900614;29;20127;-83
2021/07/18 14:07:57;;;;;;;3.50;2.30;;;26.60;79.80;;;;;;4918030;29;20105;-83
2021/07/18 14:10:23;;;;;;;3.67;2.10;;;26.40;79.60;;;;;;4875614;29;20055;-83
2021/07/18 14:12:49;;;;;;;5.50;2.65;;;26.20;80.90;;;;;;4916011;29;20062;-82
2021/07/18 14:15:20;;;;;;;2.72;2.25;;;26.00;83.80;;;;;;4916510;29;20084;-82
2021/07/18 14:17:47;;;;;;;4.05;2.65;;;25.90;83.10;;;;;;4901944;29;20522;-83
2021/07/18 14:20:16;;;;;;;2.25;2.05;;;25.70;86.20;;;;;;4880310;29;20036;-82
2021/07/18 14:22:43;;;;;;;3.30;2.00;;;25.60;85.90;;;;;;4918622;29;20047;-82
2021/07/18 14:25:11;;;;;;;3.72;2.30;;;25.50;85.80;;;;;;4913338;29;20414;-83
2021/07/18 14:27:38;;;;;;;3.38;2.00;;;25.40;85.10;;;;;;4915467;29;20020;-83
2021/07/18 14:30:06;;;;;;;2.67;2.10;;;25.40;86.30;;;;;;4894511;29;20066;-82
2021/07/18 14:32:32;;;;;;;6.05;2.35;;;25.30;87.50;;;;;;4910852;29;20028;-83
2021/07/18 14:34:58;;;;;;;4.35;2.30;;;25.10;86.80;;;;;;4884041;29;20114;-83
2021/07/18 14:37:23;;;;;;;4.28;2.30;;;25.10;84.40;;;;;;4883759;29;20472;-83
2021/07/18 14:39:49;;;;;;;4.03;2.00;;;25.00;88.20;;;;;;4865927;29;20036;-84
2021/07/18 14:42:15;;;;;;;4.07;2.20;;;25.00;87.00;;;;;;4882998;29;20032;-82
2021/07/18 14:44:41;;;;;;;6.43;2.25;;;25.00;85.90;;;;;;4883610;29;20028;-83
2021/07/18 14:47:06;;;;;;;3.70;2.17;;;24.90;87.00;;;;;;4900667;29;20103;-83
2021/07/18 14:49:32;;;;;;;3.60;2.50;;;24.80;88.30;;;;;;4895768;29;20040;-84
2021/07/18 14:51:58;;;;;;;5.03;1.80;;;24.80;88.20;;;;;;4897583;29;20139;-83
2021/07/18 14:54:24;;;;;;;2.42;1.92;;;24.70;87.40;;;;;;4890677;29;20036;-82
2021/07/18 14:56:52;;;;;;;3.50;2.25;;;24.70;86.00;;;;;;4886922;29;20515;-85
2021/07/18 14:59:18;;;;;;;8.70;2.40;;;24.70;87.50;;;;;;4881695;29;20037;-81
2021/07/18 15:01:43;;;;;;;4.72;2.15;;;24.70;87.10;;;;;;4905758;29;20046;-81
2021/07/18 15:04:09;;;;;;;2.25;1.90;;;24.60;89.80;;;;;;4885279;29;20036;-81
2021/07/18 15:06:35;;;;;;;2.28;1.83;;;24.60;89.10;;;;;;4918237;29;20099;-84
2021/07/18 15:09:01;;;;;;;3.75;2.58;;;24.60;88.70;;;;;;4915505;29;20482;-82
2021/07/18 15:11:33;;;;;;;2.83;1.90;;;24.60;88.90;;;;;;4867414;29;20099;-82
2021/07/18 15:13:59;;;;;;;2.20;1.90;;;24.50;86.70;;;;;;4869338;29;20032;-80
2021/07/18 15:16:29;;;;;;;3.80;2.17;;;24.60;87.80;;;;;;4903240;29;20044;-81
2021/07/18 15:18:58;;;;;;;2.58;2.05;;;24.60;86.90;;;;;;4930266;29;20038;-82
2021/07/18 15:21:25;;;;;;;2.30;1.92;;;24.50;86.80;;;;;;4932386;29;20045;-81
2021/07/18 15:23:51;;;;;;;2.22;1.77;;;24.50;88.10;;;;;;4902533;29;20035;-83
2021/07/18 15:26:17;;;;;;;4.90;2.47;;;24.50;85.40;;;;;;4901121;29;20087;-82
2021/07/18 15:28:42;;;;;;;2.20;2.00;;;24.50;87.00;;;;;;4911123;29;20571;-83
2021/07/18 15:31:09;;;;;;;2.33;1.85;;;24.50;87.70;;;;;;4886836;29;20060;-81
2021/07/18 15:33:35;;;;;;;2.47;2.03;;;24.50;89.70;;;;;;4916881;29;20119;-80
2021/07/18 15:36:03;;;;;;;2.60;1.90;;;24.50;89.40;;;;;;4919733;29;20099;-81
2021/07/18 15:38:30;;;;;;;1.90;1.52;;;24.50;86.90;;;;;;4913925;29;20040;-83
2021/07/18 15:40:56;;;;;;;2.42;1.80;;;24.50;87.80;;;;;;4913822;29;20055;-83
2021/07/18 15:43:22;;;;;;;2.95;2.05;;;24.50;88.70;;;;;;4896431;29;20066;-83
2021/07/18 15:45:48;;;;;;;3.53;2.03;;;24.50;88.80;;;;;;4917588;29;20059;-84
2021/07/18 15:48:14;;;;;;;2.13;1.92;;;24.50;89.30;;;;;;4930929;29;20458;-83
2021/07/18 15:50:40;;;;;;;2.83;2.17;;;24.60;88.80;;;;;;4898012;29;20047;-85
2021/07/18 15:53:06;;;;;;;2.75;2.05;;;24.50;89.50;;;;;;4930053;29;20027;-83
2021/07/18 15:55:31;;;;;;;2.50;1.95;;;24.40;89.90;;;;;;4896791;29;20044;-83
2021/07/18 15:57:57;;;;;;;2.80;2.10;;;24.40;90.90;;;;;;4902605;29;20036;-84
2021/07/18 16:00:23;;;;;;;2.80;1.85;;;24.40;89.80;;;;;;4901414;29;20032;-85
2021/07/18 16:02:48;;;;;;;2.45;2.20;;;24.40;90.10;;;;;;4908929;29;20490;-82
2021/07/18 16:05:14;;;;;;;3.95;2.35;;;24.50;90.30;;;;;;4911733;29;20474;-84
2021/07/18 16:07:43;;;;;;;3.20;2.33;;;24.40;89.80;;;;;;4893014;29;20040;-83
2021/07/18 16:10:10;;;;;;;2.58;1.92;;;24.40;90.10;;;;;;4904711;29;20622;-84
2021/07/18 16:12:36;;;;;;;4.10;2.22;;;24.40;90.10;;;;;;4919161;29;20070;-83
2021/07/18 16:15:04;;;;;;;2.30;1.88;;;24.40;89.30;;;;;;4921479;29;20036;-84
2021/07/18 16:17:30;;;;;;;2.38;2.08;;;24.40;90.40;;;;;;4891282;29;20127;-84
2021/07/18 16:19:56;;;;;;;1.75;1.65;;;24.30;90.70;;;;;;4901650;29;20047;-82
2021/07/18 16:22:22;;;;;;;1.98;1.77;;;24.30;91.10;;;;;;4912527;29;20059;-83
2021/07/18 16:24:48;;;;;;;3.78;2.10;;;24.20;91.00;;;;;;4901675;29;20028;-84
2021/07/18 16:27:14;;;;;;;4.97;2.58;;;24.20;91.00;;;;;;4901620;29;20066;-83
2021/07/18 16:29:39;;;;;;;2.30;1.92;;;24.20;90.50;;;;;;4918046;29;20122;-83
2021/07/18 16:32:06;;;;;;;2.47;2.15;;;24.20;91.00;;;;;;4915065;29;20055;-83
2021/07/18 16:34:31;;;;;;;2.83;1.70;;;24.20;91.00;;;;;;4935144;29;20095;-83
2021/07/18 16:36:57;;;;;;;2.53;1.73;;;24.10;91.20;;;;;;4903288;29;20048;-84
2021/07/18 16:39:27;;;;;;;2.45;2.08;;;24.10;91.70;;;;;;4918470;29;20027;-83
2021/07/18 16:41:53;;;;;;;2.25;1.83;;;24.00;90.80;;;;;;4918862;29;20040;-84
2021/07/18 16:44:19;;;;;;;2.33;2.13;;;24.00;91.30;;;;;;4903291;29;20035;-83
2021/07/18 16:46:44;;;;;;;2.45;1.80;;;23.90;91.50;;;;;;4911685;29;20036;-84
2021/07/18 16:49:11;;;;;;;6.28;2.03;;;23.90;91.90;;;;;;4883641;29;20044;-83
2021/07/18 16:51:36;;;;;;;1.90;1.63;;;23.80;92.00;;;;;;4893497;29;20040;-84
2021/07/18 16:54:02;;;;;;;4.55;1.98;;;23.80;92.70;;;;;;4912618;29;20380;-84
2021/07/18 16:56:29;;;;;;;2.28;2.00;;;23.80;92.30;;;;;;4904600;29;20040;-84
2021/07/18 16:59:02;;;;;;;3.50;1.75;;;23.70;92.70;;;;;;4884345;29;20157;-83
2021/07/18 17:01:28;;;;;;;2.95;1.90;;;23.70;92.40;;;;;;4885925;29;20044;-83
2021/07/18 17:03:54;;;;;;;3.05;2.13;;;23.70;92.80;;;;;;4903124;29;20032;-83
2021/07/18 17:06:20;;;;;;;3.05;2.20;;;23.60;92.80;;;;;;4881847;29;20039;-84
2021/07/18 17:08:45;;;;;;;2.53;2.03;;;23.60;92.70;;;;;;4904186;29;20028;-84
2021/07/18 17:11:14;;;;;;;4.32;2.10;;;23.60;93.00;;;;;;4901812;29;20040;-85
2021/07/18 17:13:44;;;;;;;2.58;1.77;;;23.60;92.80;;;;;;4901580;29;20039;-83
2021/07/18 17:16:14;;;;;;;3.28;2.50;;;23.50;93.00;;;;;;4896868;29;20570;-84
2021/07/18 17:18:40;;;;;;;4.03;2.28;;;23.50;93.30;;;;;;4895828;29;20045;-85
2021/07/18 17:21:10;;;;;;;3.35;1.90;;;23.50;93.90;;;;;;4887014;29;20036;-84
2021/07/18 17:23:37;;;;;;;3.05;2.17;;;23.50;93.80;;;;;;4895952;29;20032;-83
2021/07/18 17:26:04;;;;;;;3.95;1.98;;;23.40;93.60;;;;;;4923196;29;20083;-84
2021/07/18 17:28:33;;;;;;;2.30;2.10;;;23.40;94.00;;;;;;4922192;29;20036;-85
2021/07/18 17:30:59;;;;;;;3.63;2.50;;;23.40;94.10;;;;;;4897153;29;20050;-85
2021/07/18 17:33:24;;;;;;;3.25;2.30;;;23.40;94.40;;;;;;4889610;29;20115;-84
2021/07/18 17:35:50;;;;;;;3.38;2.45;;;23.30;94.60;;;;;;4883155;29;20083;-84
2021/07/18 17:38:16;;;;;;;3.88;2.38;;;23.30;94.80;;;;;;4884950;29;20119;-84
2021/07/18 17:40:42;;;;;;;2.58;2.25;;;23.30;94.90;;;;;;4895667;29;20032;-83
2021/07/18 17:43:07;;;;;;;2.45;1.90;;;23.30;94.40;;;;;;4890712;29;20422;-83
2021/07/18 17:45:33;;;;;;;2.72;2.38;;;23.20;94.50;;;;;;4880167;29;20487;-83
2021/07/18 17:47:59;;;;;;;3.05;2.33;;;23.10;95.00;;;;;;4882393;29;20423;-83
2021/07/18 17:50:25;;;;;;;3.55;2.08;;;23.10;95.10;;;;;;4897612;29;20574;-84
2021/07/18 17:52:51;;;;;;;3.65;2.40;;;23.10;95.70;;;;;;4896587;29;20119;-84
2021/07/18 17:55:18;;;;;;;3.88;2.05;;;23.00;95.60;;;;;;4867466;29;20055;-84
2021/07/18 17:57:44;;;;;;;3.35;2.30;;;23.00;95.90;;;;;;4899539;29;20064;-84
2021/07/18 18:00:16;;;;;;;2.40;1.95;;;22.90;96.30;;;;;;4892266;29;20478;-82
2021/07/18 18:02:42;;;;;;;3.60;2.10;;;22.90;96.00;;;;;;4906171;29;20043;-82
2021/07/18 18:05:09;;;;;;;2.63;2.38;;;22.80;96.50;;;;;;4885922;29;20130;-83
2021/07/18 18:07:36;;;;;;;2.67;2.40;;;22.70;96.90;;;;;;4858897;29;20116;-83
2021/07/18 18:10:04;;;;;;;3.10;2.45;;;22.70;97.20;;;;;;4887069;29;20060;-83
2021/07/18 18:12:30;;;;;;;8.40;2.42;;;22.60;97.00;;;;;;4876346;29;20034;-83
2021/07/18 18:14:56;;;;;;;2.65;2.20;;;22.60;97.60;;;;;;4886961;29;20575;-83
2021/07/18 18:17:22;;;;;;;2.40;2.13;;;22.50;98.10;;;;;;4891119;29;20024;-84
2021/07/18 18:19:48;;;;;;;3.05;2.72;;;22.40;98.40;;;;;;4891820;29;20100;-84
2021/07/18 18:22:13;;;;;;;2.35;2.15;;;22.40;98.80;;;;;;4906289;29;20059;-84
2021/07/18 18:24:42;;;;;;;2.50;2.30;;;22.30;98.70;;;;;;4909109;29;20075;-84
2021/07/18 18:27:08;;;;;;;3.28;2.67;;;22.30;99.10;;;;;;4916644;29;20032;-83
2021/07/18 18:29:34;;;;;;;2.80;2.33;;;22.30;99.50;;;;;;4876654;29;20038;-83
2021/07/18 18:32:00;;;;;;;3.38;2.30;;;22.20;99.80;;;;;;4901470;29;20060;-84
2021/07/18 18:34:27;;;;;;;3.05;2.50;;;22.10;99.90;;;;;;4889086;29;20701;-83
2021/07/18 18:36:53;;;;;;;2.30;2.10;;;22.10;99.90;;;;;;4892473;29;20027;-84
2021/07/18 18:39:19;;;;;;;3.00;2.38;;;22.00;99.90;;;;;;4907126;29;20099;-84
2021/07/18 18:41:47;;;;;;;2.83;2.30;;;21.90;99.90;;;;;;4890265;29;20088;-84
2021/07/18 18:44:13;;;;;;;3.28;2.22;;;21.90;99.90;;;;;;4921268;29;20442;-84
2021/07/18 18:46:39;;;;;;;3.10;2.30;;;21.80;99.90;;;;;;4900603;29;20038;-84
2021/07/18 18:49:06;;;;;;;2.80;2.20;;;21.80;99.90;;;;;;4906719;29;20733;-84
2021/07/18 18:51:32;;;;;;;3.15;2.40;;;21.70;99.90;;;;;;4909612;29;20050;-84
2021/07/18 18:53:57;;;;;;;2.70;2.50;;;21.60;99.90;;;;;;4919024;29;20039;-84
2021/07/18 18:56:23;;;;;;;3.08;2.55;;;21.60;99.90;;;;;;4865030;29;20040;-84
2021/07/18 18:58:49;;;;;;;3.58;2.35;;;21.50;99.90;;;;;;4888816;29;20036;-83
2021/07/18 19:01:15;;;;;;;4.10;2.50;;;21.40;99.90;;;;;;4904879;29;20072;-83
2021/07/18 19:03:41;;;;;;;3.67;2.38;;;21.30;99.90;;;;;;4896179;29;20039;-84
2021/07/18 19:06:07;;;;;;;2.78;2.55;;;21.30;99.90;;;;;;4890802;29;20032;-84
2021/07/18 19:08:33;;;;;;;2.47;2.15;;;21.10;99.90;;;;;;4893103;29;20092;-83
2021/07/18 19:10:58;;;;;;;3.42;2.50;;;21.10;99.90;;;;;;4912123;29;20031;-84
2021/07/18 19:13:24;;;;;;;4.13;2.58;;;21.00;99.90;;;;;;4918600;29;20035;-83
2021/07/18 19:15:53;;;;;;;2.65;2.45;;;20.90;99.90;;;;;;4867100;29;20403;-83
2021/07/18 19:18:19;;;;;;;2.83;2.30;;;20.80;99.90;;;;;;4912760;29;20032;-83
2021/07/18 19:20:45;;;;;;;3.83;2.53;;;20.80;99.90;;;;;;4889978;29;20050;-85
2021/07/18 19:23:11;;;;;;;3.47;2.78;;;20.70;99.90;;;;;;4878078;29;20042;-84
2021/07/18 19:25:36;;;;;;;4.53;2.80;;;20.60;99.90;;;;;;4883514;29;20670;-83
2021/07/18 19:28:04;;;;;;;4.88;2.45;;;20.60;99.90;;;;;;4901429;29;20028;-83
2021/07/18 19:30:30;;;;;;;3.80;2.53;;;20.50;99.90;;;;;;4901517;29;20062;-83
2021/07/18 19:32:56;;;;;;;3.13;2.70;;;20.40;99.90;;;;;;4915096;29;20561;-84
2021/07/18 19:35:23;;;;;;;3.75;2.53;;;20.30;99.90;;;;;;4862385;29;20031;-84
2021/07/18 19:37:49;;;;;;;2.92;2.40;;;20.20;99.90;;;;;;4878466;29;20123;-83
2021/07/18 19:40:18;;;;;;;3.85;2.83;;;20.10;99.90;;;;;;4891583;29;20736;-84
2021/07/18 19:42:44;;;;;;;2.90;2.42;;;20.10;99.90;;;;;;4902135;29;20033;-84
2021/07/18 19:45:10;;;;;;;4.20;3.10;;;20.00;99.90;;;;;;4877784;29;20055;-82
2021/07/18 19:47:39;;;;;;;4.22;2.65;;;20.00;99.90;;;;;;4892575;29;20119;-82
2021/07/18 19:50:05;;;;;;;3.25;2.65;;;19.90;99.90;;;;;;4874091;29;20607;-83
2021/07/18 19:52:31;;;;;;;3.03;2.50;;;19.80;99.90;;;;;;4876692;29;20118;-84
2021/07/18 19:54:56;;;;;;;4.57;3.42;;;19.70;99.90;;;;;;4884085;29;20151;-83
2021/07/18 19:57:22;;;;;;;5.68;3.10;;;19.70;99.90;;;;;;4874572;29;20032;-82
2021/07/18 19:59:48;;;;;;;4.13;2.80;;;19.60;99.90;;;;;;4894352;29;20027;-84
2021/07/18 20:02:13;;;;;;;5.05;2.80;;;19.60;99.90;;;;;;4891195;29;20372;-83
2021/07/18 20:04:39;;;;;;;3.53;2.65;;;19.50;99.90;;;;;;4883335;29;20124;-83
2021/07/18 20:07:05;;;;;;;3.50;2.90;;;19.50;99.90;;;;;;4873062;29;20529;-83
2021/07/18 20:09:31;;;;;;;3.38;2.60;;;19.40;99.90;;;;;;4859041;29;20032;-84
2021/07/18 20:11:56;;;;;;;3.42;2.88;;;19.40;99.90;;;;;;4881914;29;20047;-83
2021/07/18 20:14:22;;;;;;;4.13;3.08;;;19.30;99.90;;;;;;4859384;29;20036;-83
2021/07/18 20:16:48;;;;;;;4.88;2.85;;;19.20;99.90;;;;;;4884883;29;20130;-83
2021/07/18 20:19:14;;;;;;;3.70;2.97;;;19.20;99.90;;;;;;4910873;29;20028;-84
2021/07/18 20:21:39;;;;;;;4.10;2.85;;;19.10;99.90;;;;;;4902936;29;20550;-83
2021/07/18 20:24:05;;;;;;;4.47;2.83;;;19.10;99.90;;;;;;4890739;29;20020;-83
2021/07/18 20:26:31;;;;;;;11.57;3.58;;;19.00;99.90;;;;;;4894598;29;20047;-84
2021/07/18 20:28:57;;;;;;;4.57;2.72;;;18.90;99.90;;;;;;4875086;29;20033;-84
2021/07/18 20:31:23;;;;;;;4.72;2.92;;;18.90;99.90;;;;;;4892370;29;20028;-84
2021/07/18 20:33:55;;;;;;;3.83;2.67;;;18.80;99.90;;;;;;4901628;29;20459;-84
2021/07/18 20:36:23;;;;;;;3.88;3.45;;;18.70;99.90;;;;;;4870084;29;20051;-83
2021/07/18 20:38:50;;;;;;;3.47;2.95;;;18.70;99.90;;;;;;4887520;29;20028;-83
2021/07/18 20:41:16;;;;;;;5.97;2.97;;;18.60;99.90;;;;;;4900389;29;20115;-83
2021/07/18 20:43:45;;;;;;;3.80;2.90;;;18.60;99.90;;;;;;4893005;29;20028;-82